createdAt,value
2022-10-24T00:00:04.613Z,53.65
2022-10-24T00:01:04.564Z,53.65
2022-10-24T00:02:04.564Z,53.65
2022-10-24T00:03:04.626Z,53.65
2022-10-24T00:05:04.637Z,14.12
2022-10-24T00:06:04.569Z,350.12
2022-10-24T00:07:04.568Z,4.24
2022-10-24T00:08:04.574Z,328.94
2022-10-24T00:09:04.574Z,15.53
2022-10-24T00:10:04.555Z,15.53
2022-10-24T00:11:04.557Z,15.53
2022-10-24T00:12:04.571Z,15.53
2022-10-24T00:13:04.572Z,15.53
2022-10-24T00:14:04.571Z,15.53
2022-10-24T00:15:04.574Z,15.53
2022-10-24T00:16:04.566Z,15.53
2022-10-24T00:17:04.572Z,15.53
2022-10-24T00:18:04.571Z,15.53
2022-10-24T00:19:04.593Z,162.35
2022-10-24T00:20:04.570Z,194.82
2022-10-24T00:21:04.572Z,228.71
2022-10-24T00:22:04.573Z,187.76
2022-10-24T00:23:04.573Z,156.71
2022-10-24T00:24:04.578Z,101.65
2022-10-24T00:25:04.577Z,108.71
2022-10-24T00:26:04.621Z,108.71
2022-10-24T00:27:04.588Z,108.71
2022-10-24T00:28:04.577Z,108.71
2022-10-24T00:29:04.576Z,108.71
2022-10-24T00:30:04.568Z,108.71
2022-10-24T00:31:04.584Z,108.71
2022-10-24T00:32:04.581Z,108.71
2022-10-24T00:33:04.577Z,108.71
2022-10-24T00:34:04.584Z,36.71
2022-10-24T00:35:04.629Z,36.71
2022-10-24T00:36:04.579Z,36.71
2022-10-24T00:37:04.593Z,36.71
2022-10-24T00:38:04.587Z,36.71
2022-10-24T00:39:04.577Z,36.71
2022-10-24T00:40:04.590Z,36.71
2022-10-24T00:41:04.588Z,36.71
2022-10-24T00:42:04.581Z,36.71
2022-10-24T00:43:04.581Z,36.71
2022-10-24T00:44:04.581Z,36.71
2022-10-24T00:45:04.591Z,36.71
2022-10-24T00:46:04.593Z,72
2022-10-24T00:47:04.596Z,60.71
2022-10-24T00:48:04.582Z,55.06
2022-10-24T00:49:04.593Z,90.35
2022-10-24T00:50:04.594Z,55.06
2022-10-24T00:51:04.617Z,59.29
2022-10-24T00:52:04.589Z,59.29
2022-10-24T00:53:04.595Z,59.29
2022-10-24T00:54:04.614Z,59.29
2022-10-24T00:55:04.590Z,59.29
2022-10-24T00:56:04.601Z,59.29
2022-10-24T00:57:04.585Z,59.29
2022-10-24T00:58:04.594Z,36.71
2022-10-24T00:59:04.599Z,28.24
2022-10-24T01:00:04.594Z,26.82
2022-10-24T01:01:04.707Z,29.65
2022-10-24T01:02:04.651Z,203.29
2022-10-24T01:03:04.598Z,149.65
2022-10-24T01:04:04.592Z,189.18
2022-10-24T01:05:04.592Z,302.12
2022-10-24T01:06:04.604Z,300.71
2022-10-24T01:07:04.608Z,306.35
2022-10-24T01:08:04.596Z,295.06
2022-10-24T01:09:04.596Z,304.94
2022-10-24T01:10:04.598Z,288
2022-10-24T01:11:04.595Z,15.53
2022-10-24T01:12:04.606Z,309.18
2022-10-24T01:13:04.596Z,309.18
2022-10-24T01:14:04.596Z,323.29
2022-10-24T01:15:04.589Z,320.47
2022-10-24T01:16:04.604Z,300.71
2022-10-24T01:17:04.596Z,327.53
2022-10-24T01:18:04.596Z,4.24
2022-10-24T01:19:04.605Z,16.94
2022-10-24T01:20:04.611Z,15.53
2022-10-24T01:21:04.597Z,66.35
2022-10-24T01:22:04.612Z,66.35
2022-10-24T01:23:04.634Z,66.35
2022-10-24T01:24:04.594Z,66.35
2022-10-24T01:25:04.602Z,66.35
2022-10-24T01:26:04.609Z,66.35
2022-10-24T01:27:04.740Z,66.35
2022-10-24T01:28:04.608Z,66.35
2022-10-24T01:29:04.603Z,66.35
2022-10-24T01:30:04.606Z,66.35
2022-10-24T01:31:04.610Z,66.35
2022-10-24T01:32:04.600Z,66.35
2022-10-24T01:33:04.606Z,66.35
2022-10-24T01:34:04.609Z,66.35
2022-10-24T01:35:04.594Z,66.35
2022-10-24T01:36:04.602Z,66.35
2022-10-24T01:37:04.598Z,66.35
2022-10-24T01:38:04.605Z,93.18
2022-10-24T01:39:04.630Z,66.35
2022-10-24T01:40:04.604Z,66.35
2022-10-24T01:41:04.611Z,66.35
2022-10-24T01:42:04.616Z,66.35
2022-10-24T01:43:04.603Z,66.35
2022-10-24T01:44:04.612Z,66.35
2022-10-24T01:45:04.602Z,66.35
2022-10-24T01:46:04.603Z,66.35
2022-10-24T01:47:04.605Z,66.35
2022-10-24T01:48:04.601Z,66.35
2022-10-24T01:49:04.611Z,97.41
2022-10-24T01:50:04.605Z,97.41
2022-10-24T01:51:04.606Z,77.65
2022-10-24T01:52:04.638Z,77.65
2022-10-24T01:53:04.618Z,77.65
2022-10-24T01:54:04.604Z,77.65
2022-10-24T01:55:04.691Z,77.65
2022-10-24T01:56:04.612Z,77.65
2022-10-24T01:57:04.610Z,77.65
2022-10-24T01:58:04.617Z,77.65
2022-10-24T01:59:04.600Z,77.65
2022-10-24T02:00:04.610Z,77.65
2022-10-24T02:01:04.639Z,77.65
2022-10-24T02:02:04.614Z,77.65
2022-10-24T02:03:04.614Z,77.65
2022-10-24T02:04:04.617Z,90.35
2022-10-24T02:05:04.611Z,94.59
2022-10-24T02:06:04.610Z,97.41
2022-10-24T02:07:04.605Z,94.59
2022-10-24T02:08:04.601Z,94.59
2022-10-24T02:10:04.608Z,94.59
2022-10-24T02:11:04.637Z,94.59
2022-10-24T02:12:04.619Z,94.59
2022-10-24T02:13:04.615Z,94.59
2022-10-24T02:14:04.622Z,94.59
2022-10-24T02:15:04.619Z,94.59
2022-10-24T02:16:04.616Z,94.59
2022-10-24T02:17:04.616Z,94.59
2022-10-24T02:18:04.620Z,94.59
2022-10-24T02:19:04.628Z,94.59
2022-10-24T02:20:04.624Z,94.59
2022-10-24T02:21:04.613Z,94.59
2022-10-24T02:22:04.626Z,94.59
2022-10-24T02:23:04.614Z,94.59
2022-10-24T02:24:04.625Z,94.59
2022-10-24T02:25:04.618Z,94.59
2022-10-24T02:26:04.632Z,94.59
2022-10-24T02:27:04.651Z,94.59
2022-10-24T02:28:04.638Z,94.59
2022-10-24T02:29:04.627Z,94.59
2022-10-24T02:30:04.616Z,94.59
2022-10-24T02:31:04.621Z,94.59
2022-10-24T02:32:04.622Z,94.59
2022-10-24T02:33:04.625Z,94.59
2022-10-24T02:34:04.702Z,94.59
2022-10-24T02:35:04.617Z,94.59
2022-10-24T02:36:04.623Z,94.59
2022-10-24T02:37:04.626Z,94.59
2022-10-24T02:38:04.623Z,94.59
2022-10-24T02:39:04.620Z,94.59
2022-10-24T02:40:04.623Z,94.59
2022-10-24T02:41:04.620Z,94.59
2022-10-24T02:42:04.622Z,94.59
2022-10-24T02:43:04.636Z,94.59
2022-10-24T02:44:04.618Z,94.59
2022-10-24T02:45:04.651Z,94.59
2022-10-24T02:46:04.627Z,94.59
2022-10-24T02:47:04.623Z,94.59
2022-10-24T02:48:04.621Z,94.59
2022-10-24T02:49:04.627Z,94.59
2022-10-24T02:50:04.632Z,94.59
2022-10-24T02:51:04.619Z,94.59
2022-10-24T02:52:04.626Z,94.59
2022-10-24T02:53:04.622Z,94.59
2022-10-24T02:54:04.618Z,94.59
2022-10-24T02:55:04.623Z,94.59
2022-10-24T02:56:04.628Z,94.59
2022-10-24T02:57:04.634Z,94.59
2022-10-24T02:58:04.640Z,94.59
2022-10-24T02:59:04.682Z,94.59
2022-10-24T03:00:04.634Z,94.59
2022-10-24T03:01:04.749Z,94.59
2022-10-24T03:02:04.637Z,94.59
2022-10-24T03:03:04.639Z,94.59
2022-10-24T03:04:04.640Z,94.59
2022-10-24T03:05:04.634Z,94.59
2022-10-24T03:06:04.644Z,94.59
2022-10-24T03:07:04.634Z,94.59
2022-10-24T03:08:04.643Z,94.59
2022-10-24T03:09:04.654Z,94.59
2022-10-24T03:10:04.646Z,94.59
2022-10-24T03:11:04.632Z,94.59
2022-10-24T03:12:04.640Z,94.59
2022-10-24T03:13:04.644Z,94.59
2022-10-24T03:14:04.649Z,94.59
2022-10-24T03:15:04.661Z,94.59
2022-10-24T03:16:05.909Z,94.59
2022-10-24T03:17:04.643Z,94.59
2022-10-24T03:18:04.648Z,94.59
2022-10-24T03:19:04.653Z,94.59
2022-10-24T03:20:04.653Z,94.59
2022-10-24T03:21:04.651Z,94.59
2022-10-24T03:22:04.656Z,94.59
2022-10-24T03:23:04.650Z,94.59
2022-10-24T03:24:04.703Z,94.59
2022-10-24T03:25:04.658Z,94.59
2022-10-24T03:26:04.650Z,93.18
2022-10-24T03:27:04.667Z,93.18
2022-10-24T03:28:04.658Z,84.71
2022-10-24T03:29:04.662Z,42.35
2022-10-24T03:30:04.658Z,42.35
2022-10-24T03:31:04.676Z,42.35
2022-10-24T03:32:04.661Z,42.35
2022-10-24T03:33:04.655Z,42.35
2022-10-24T03:34:04.659Z,42.35
2022-10-24T03:35:04.666Z,42.35
2022-10-24T03:36:04.667Z,42.35
2022-10-24T03:37:04.657Z,42.35
2022-10-24T03:38:04.666Z,42.35
2022-10-24T03:39:04.663Z,42.35
2022-10-24T03:40:04.658Z,42.35
2022-10-24T03:41:04.667Z,42.35
2022-10-24T03:42:04.664Z,42.35
2022-10-24T03:43:04.665Z,42.35
2022-10-24T03:44:04.668Z,42.35
2022-10-24T03:45:04.671Z,42.35
2022-10-24T03:46:04.673Z,42.35
2022-10-24T03:47:04.695Z,42.35
2022-10-24T03:48:04.665Z,42.35
2022-10-24T03:49:04.671Z,42.35
2022-10-24T03:50:04.674Z,42.35
2022-10-24T03:51:04.674Z,42.35
2022-10-24T03:52:04.671Z,42.35
2022-10-24T03:53:04.670Z,42.35
2022-10-24T03:54:04.671Z,42.35
2022-10-24T03:55:04.671Z,42.35
2022-10-24T03:56:04.707Z,42.35
2022-10-24T03:57:04.670Z,42.35
2022-10-24T03:58:04.669Z,42.35
2022-10-24T03:59:04.676Z,42.35
2022-10-24T04:00:04.670Z,42.35
2022-10-24T04:01:04.734Z,42.35
2022-10-24T04:02:04.674Z,42.35
2022-10-24T04:03:04.702Z,42.35
2022-10-24T04:04:04.680Z,42.35
2022-10-24T04:05:04.680Z,42.35
2022-10-24T04:06:04.684Z,42.35
2022-10-24T04:07:04.713Z,42.35
2022-10-24T04:08:04.686Z,42.35
2022-10-24T04:09:04.697Z,42.35
2022-10-24T04:10:04.681Z,42.35
2022-10-24T04:11:04.691Z,42.35
2022-10-24T04:12:04.683Z,42.35
2022-10-24T04:13:04.686Z,42.35
2022-10-24T04:14:04.713Z,42.35
2022-10-24T04:15:04.929Z,42.35
2022-10-24T04:16:04.691Z,42.35
2022-10-24T04:17:04.681Z,42.35
2022-10-24T04:18:04.696Z,42.35
2022-10-24T04:19:04.711Z,42.35
2022-10-24T04:20:04.695Z,42.35
2022-10-24T04:21:04.694Z,42.35
2022-10-24T04:22:04.693Z,42.35
2022-10-24T04:23:04.775Z,42.35
2022-10-24T04:24:04.700Z,42.35
2022-10-24T04:25:04.696Z,42.35
2022-10-24T04:26:04.694Z,42.35
2022-10-24T04:27:04.698Z,42.35
2022-10-24T04:28:04.696Z,42.35
2022-10-24T04:29:04.697Z,42.35
2022-10-24T04:30:04.703Z,42.35
2022-10-24T04:31:04.710Z,42.35
2022-10-24T04:32:04.705Z,42.35
2022-10-24T04:33:04.700Z,42.35
2022-10-24T04:34:04.709Z,42.35
2022-10-24T04:35:04.740Z,42.35
2022-10-24T04:36:04.712Z,42.35
2022-10-24T04:37:04.711Z,42.35
2022-10-24T04:38:04.709Z,42.35
2022-10-24T04:39:04.731Z,42.35
2022-10-24T04:40:04.711Z,42.35
2022-10-24T04:41:06.222Z,42.35
2022-10-24T04:42:04.708Z,42.35
2022-10-24T04:43:04.710Z,42.35
2022-10-24T04:44:04.712Z,42.35
2022-10-24T04:45:04.706Z,42.35
2022-10-24T04:46:04.705Z,42.35
2022-10-24T04:47:04.712Z,42.35
2022-10-24T04:48:04.722Z,42.35
2022-10-24T04:49:04.722Z,42.35
2022-10-24T04:50:04.720Z,42.35
2022-10-24T04:51:04.743Z,42.35
2022-10-24T04:52:04.714Z,42.35
2022-10-24T04:53:04.719Z,42.35
2022-10-24T04:54:04.722Z,42.35
2022-10-24T04:55:04.727Z,42.35
2022-10-24T04:56:04.714Z,42.35
2022-10-24T04:57:04.727Z,42.35
2022-10-24T04:58:04.729Z,42.35
2022-10-24T04:59:04.725Z,42.35
2022-10-24T05:00:04.738Z,42.35
2022-10-24T05:01:04.785Z,42.35
2022-10-24T05:02:04.775Z,42.35
2022-10-24T05:03:04.716Z,42.35
2022-10-24T05:04:04.733Z,42.35
2022-10-24T05:05:04.794Z,42.35
2022-10-24T05:06:04.728Z,42.35
2022-10-24T05:07:04.744Z,42.35
2022-10-24T05:08:04.732Z,42.35
2022-10-24T05:09:04.729Z,42.35
2022-10-24T05:10:04.730Z,42.35
2022-10-24T05:11:04.733Z,42.35
2022-10-24T05:12:04.737Z,42.35
2022-10-24T05:13:04.736Z,42.35
2022-10-24T05:14:04.737Z,42.35
2022-10-24T05:15:04.740Z,42.35
2022-10-24T05:16:04.731Z,42.35
2022-10-24T05:17:04.737Z,42.35
2022-10-24T05:18:04.736Z,42.35
2022-10-24T05:19:04.738Z,42.35
2022-10-24T05:20:04.732Z,42.35
2022-10-24T05:21:04.745Z,42.35
2022-10-24T05:22:05.985Z,42.35
2022-10-24T05:23:04.788Z,42.35
2022-10-24T05:24:04.734Z,42.35
2022-10-24T05:25:04.750Z,42.35
2022-10-24T05:26:04.746Z,42.35
2022-10-24T05:27:04.739Z,42.35
2022-10-24T05:28:04.748Z,42.35
2022-10-24T05:29:04.826Z,42.35
2022-10-24T05:30:04.743Z,42.35
2022-10-24T05:31:04.743Z,42.35
2022-10-24T05:32:04.743Z,42.35
2022-10-24T05:33:04.747Z,42.35
2022-10-24T05:34:04.737Z,42.35
2022-10-24T05:35:04.750Z,42.35
2022-10-24T05:36:04.745Z,42.35
2022-10-24T05:37:04.747Z,42.35
2022-10-24T05:38:04.756Z,42.35
2022-10-24T05:39:04.775Z,42.35
2022-10-24T05:40:04.748Z,42.35
2022-10-24T05:41:04.740Z,42.35
2022-10-24T05:42:04.750Z,42.35
2022-10-24T05:43:04.752Z,42.35
2022-10-24T05:44:04.753Z,42.35
2022-10-24T05:45:04.748Z,42.35
2022-10-24T05:46:04.763Z,42.35
2022-10-24T05:47:04.756Z,42.35
2022-10-24T05:48:04.760Z,42.35
2022-10-24T05:49:04.756Z,42.35
2022-10-24T05:50:04.758Z,42.35
2022-10-24T05:51:04.765Z,42.35
2022-10-24T05:52:04.754Z,42.35
2022-10-24T05:53:04.764Z,42.35
2022-10-24T05:54:04.811Z,42.35
2022-10-24T05:55:08.551Z,42.35
2022-10-24T05:56:04.751Z,42.35
2022-10-24T05:57:04.758Z,42.35
2022-10-24T05:58:04.775Z,42.35
2022-10-24T05:59:04.760Z,42.35
2022-10-24T06:00:04.755Z,42.35
2022-10-24T06:01:04.814Z,42.35
2022-10-24T06:02:04.854Z,42.35
2022-10-24T06:03:04.765Z,42.35
2022-10-24T06:04:05.542Z,42.35
2022-10-24T06:05:04.765Z,42.35
2022-10-24T06:06:04.743Z,42.35
2022-10-24T06:07:04.750Z,42.35
2022-10-24T06:08:04.767Z,42.35
2022-10-24T06:09:04.760Z,42.35
2022-10-24T06:10:04.753Z,42.35
2022-10-24T06:11:04.786Z,42.35
2022-10-24T06:12:04.767Z,42.35
2022-10-24T06:13:04.758Z,42.35
2022-10-24T06:14:04.752Z,42.35
2022-10-24T06:15:04.761Z,42.35
2022-10-24T06:16:04.759Z,42.35
2022-10-24T06:17:04.763Z,42.35
2022-10-24T06:18:04.760Z,42.35
2022-10-24T06:19:04.754Z,42.35
2022-10-24T06:20:04.756Z,42.35
2022-10-24T06:21:04.770Z,42.35
2022-10-24T06:22:04.762Z,42.35
2022-10-24T06:23:04.768Z,42.35
2022-10-24T06:24:04.765Z,42.35
2022-10-24T06:25:04.769Z,42.35
2022-10-24T06:26:04.763Z,42.35
2022-10-24T06:27:04.792Z,42.35
2022-10-24T06:28:04.816Z,42.35
2022-10-24T06:29:04.761Z,42.35
2022-10-24T06:30:04.766Z,42.35
2022-10-24T06:31:04.761Z,42.35
2022-10-24T06:32:04.761Z,42.35
2022-10-24T06:33:04.761Z,42.35
2022-10-24T06:34:04.773Z,42.35
2022-10-24T06:35:04.764Z,42.35
2022-10-24T06:36:04.768Z,42.35
2022-10-24T06:37:04.766Z,42.35
2022-10-24T06:38:04.787Z,42.35
2022-10-24T06:39:04.768Z,42.35
2022-10-24T06:40:04.806Z,42.35
2022-10-24T06:41:04.764Z,42.35
2022-10-24T06:42:04.781Z,42.35
2022-10-24T06:43:04.794Z,42.35
2022-10-24T06:44:07.700Z,42.35
2022-10-24T06:45:04.768Z,42.35
2022-10-24T06:46:04.779Z,42.35
2022-10-24T06:47:04.770Z,42.35
2022-10-24T06:48:04.765Z,42.35
2022-10-24T06:49:04.775Z,42.35
2022-10-24T06:50:04.776Z,42.35
2022-10-24T06:51:04.784Z,42.35
2022-10-24T06:52:04.771Z,42.35
2022-10-24T06:53:04.765Z,42.35
2022-10-24T06:54:04.763Z,42.35
2022-10-24T06:55:04.775Z,42.35
2022-10-24T06:56:04.768Z,42.35
2022-10-24T06:57:04.773Z,42.35
2022-10-24T06:58:04.780Z,42.35
2022-10-24T06:59:04.789Z,42.35
2022-10-24T07:00:04.761Z,42.35
2022-10-24T07:01:04.892Z,42.35
2022-10-24T07:02:05.807Z,42.35
2022-10-24T07:03:04.771Z,42.35
2022-10-24T07:04:04.765Z,42.35
2022-10-24T07:05:04.777Z,42.35
2022-10-24T07:06:04.774Z,42.35
2022-10-24T07:07:04.772Z,42.35
2022-10-24T07:08:04.780Z,42.35
2022-10-24T07:09:04.779Z,42.35
2022-10-24T07:10:04.777Z,42.35
2022-10-24T07:11:04.771Z,42.35
2022-10-24T07:12:04.784Z,42.35
2022-10-24T07:13:04.779Z,42.35
2022-10-24T07:14:08.326Z,42.35
2022-10-24T07:15:04.801Z,42.35
2022-10-24T07:16:04.770Z,42.35
2022-10-24T07:17:04.792Z,42.35
2022-10-24T07:18:04.773Z,42.35
2022-10-24T07:19:04.781Z,42.35
2022-10-24T07:20:04.788Z,42.35
2022-10-24T07:21:04.776Z,42.35
2022-10-24T07:22:04.788Z,42.35
2022-10-24T07:23:04.779Z,42.35
2022-10-24T07:24:04.782Z,42.35
2022-10-24T07:25:04.776Z,42.35
2022-10-24T07:26:04.781Z,42.35
2022-10-24T07:27:04.780Z,42.35
2022-10-24T07:28:04.779Z,42.35
2022-10-24T07:29:04.845Z,42.35
2022-10-24T07:30:05.650Z,42.35
2022-10-24T07:31:04.798Z,42.35
2022-10-24T07:32:04.783Z,42.35
2022-10-24T07:33:04.791Z,42.35
2022-10-24T07:34:04.791Z,42.35
2022-10-24T07:35:04.789Z,42.35
2022-10-24T07:36:04.786Z,42.35
2022-10-24T07:37:04.790Z,42.35
2022-10-24T07:38:04.787Z,42.35
2022-10-24T07:39:04.790Z,42.35
2022-10-24T07:40:04.812Z,42.35
2022-10-24T07:41:04.790Z,42.35
2022-10-24T07:42:04.790Z,42.35
2022-10-24T07:43:04.784Z,42.35
2022-10-24T07:44:04.785Z,42.35
2022-10-24T07:45:04.792Z,42.35
2022-10-24T07:46:04.798Z,42.35
2022-10-24T07:47:04.817Z,87.53
2022-10-24T07:48:04.792Z,76.24
2022-10-24T07:49:04.782Z,76.24
2022-10-24T07:50:04.781Z,76.24
2022-10-24T07:51:04.790Z,94.59
2022-10-24T07:52:04.790Z,72
2022-10-24T07:53:04.792Z,165.18
2022-10-24T07:54:04.793Z,238.59
2022-10-24T07:55:04.793Z,206.12
2022-10-24T07:56:04.789Z,184.94
2022-10-24T07:57:04.792Z,170.82
2022-10-24T07:58:04.787Z,145.41
2022-10-24T07:59:09.292Z,159.53
2022-10-24T08:00:04.801Z,146.82
2022-10-24T08:01:04.821Z,144
2022-10-24T08:02:04.785Z,146.82
2022-10-24T08:03:04.819Z,127.06
2022-10-24T08:04:04.792Z,156.71
2022-10-24T08:05:04.876Z,159.53
2022-10-24T08:06:04.794Z,114.35
2022-10-24T08:07:04.786Z,114.35
2022-10-24T08:08:24.963Z,172.24
2022-10-24T08:09:04.793Z,117.18
2022-10-24T08:10:04.803Z,117.18
2022-10-24T08:11:04.811Z,117.18
2022-10-24T08:12:04.801Z,117.18
2022-10-24T08:13:04.809Z,117.18
2022-10-24T08:14:04.791Z,117.18
2022-10-24T08:15:04.797Z,144
2022-10-24T08:16:04.793Z,227.29
2022-10-24T08:17:04.806Z,193.41
2022-10-24T08:18:04.794Z,221.65
2022-10-24T08:19:04.818Z,235.76
2022-10-24T08:20:04.794Z,235.76
2022-10-24T08:21:04.801Z,235.76
2022-10-24T08:22:04.803Z,235.76
2022-10-24T08:23:04.801Z,160.94
2022-10-24T08:24:04.801Z,146.82
2022-10-24T08:25:04.806Z,163.76
2022-10-24T08:26:04.799Z,163.76
2022-10-24T08:27:04.808Z,163.76
2022-10-24T08:28:06.598Z,163.76
2022-10-24T08:29:04.802Z,163.76
2022-10-24T08:30:04.795Z,163.76
2022-10-24T08:31:04.799Z,163.76
2022-10-24T08:32:04.804Z,163.76
2022-10-24T08:33:04.796Z,163.76
2022-10-24T08:34:04.804Z,163.76
2022-10-24T08:35:04.827Z,163.76
2022-10-24T08:36:04.799Z,163.76
2022-10-24T08:37:04.802Z,163.76
2022-10-24T08:38:04.805Z,163.76
2022-10-24T08:39:04.813Z,163.76
2022-10-24T08:40:04.812Z,163.76
2022-10-24T08:41:04.810Z,163.76
2022-10-24T08:42:04.809Z,163.76
2022-10-24T08:43:04.804Z,163.76
2022-10-24T08:44:04.800Z,163.76
2022-10-24T08:45:04.803Z,163.76
2022-10-24T08:46:04.813Z,163.76
2022-10-24T08:47:04.819Z,163.76
2022-10-24T08:48:04.819Z,163.76
2022-10-24T08:49:04.816Z,163.76
2022-10-24T08:50:04.805Z,163.76
2022-10-24T08:51:04.844Z,163.76
2022-10-24T08:52:04.816Z,163.76
2022-10-24T08:53:04.819Z,163.76
2022-10-24T08:54:04.829Z,163.76
2022-10-24T08:55:07.095Z,28.24
2022-10-24T08:56:04.824Z,316.24
2022-10-24T08:57:04.816Z,297.88
2022-10-24T08:58:04.823Z,297.88
2022-10-24T08:59:04.829Z,297.88
2022-10-24T09:00:04.829Z,16.94
2022-10-24T09:01:04.925Z,16.94
2022-10-24T09:02:05.474Z,16.94
2022-10-24T09:03:04.825Z,16.94
2022-10-24T09:04:04.827Z,16.94
2022-10-24T09:05:04.822Z,16.94
2022-10-24T09:06:04.827Z,16.94
2022-10-24T09:07:04.862Z,16.94
2022-10-24T09:08:04.844Z,16.94
2022-10-24T09:09:04.839Z,16.94
2022-10-24T09:10:04.841Z,16.94
2022-10-24T09:11:04.827Z,16.94
2022-10-24T09:12:04.846Z,16.94
2022-10-24T09:13:04.842Z,16.94
2022-10-24T09:14:04.849Z,16.94
2022-10-24T09:15:04.846Z,16.94
2022-10-24T09:16:04.846Z,16.94
2022-10-24T09:17:04.848Z,16.94
2022-10-24T09:18:04.852Z,16.94
2022-10-24T09:19:04.841Z,16.94
2022-10-24T09:20:04.838Z,16.94
2022-10-24T09:21:04.856Z,16.94
2022-10-24T09:22:04.855Z,16.94
2022-10-24T09:23:04.885Z,299.29
2022-10-24T09:24:04.848Z,295.06
2022-10-24T09:25:04.862Z,279.53
2022-10-24T09:26:04.847Z,268.24
2022-10-24T09:27:04.853Z,225.88
2022-10-24T09:28:04.859Z,225.88
2022-10-24T09:29:04.855Z,237.18
2022-10-24T09:30:04.847Z,237.18
2022-10-24T09:31:04.851Z,237.18
2022-10-24T09:32:04.862Z,237.18
2022-10-24T09:33:04.867Z,237.18
2022-10-24T09:34:04.863Z,271.06
2022-10-24T09:35:04.860Z,211.76
2022-10-24T09:36:04.863Z,249.88
2022-10-24T09:37:04.874Z,249.88
2022-10-24T09:38:04.860Z,249.88
2022-10-24T09:39:04.886Z,249.88
2022-10-24T09:40:04.861Z,280.94
2022-10-24T09:41:04.859Z,286.59
2022-10-24T09:42:04.869Z,280.94
2022-10-24T09:43:04.863Z,264
2022-10-24T09:44:04.876Z,276.71
2022-10-24T09:45:04.869Z,240
2022-10-24T09:46:04.866Z,252.71
2022-10-24T09:47:04.865Z,306.35
2022-10-24T09:48:04.876Z,321.88
2022-10-24T09:49:04.874Z,319.06
2022-10-24T09:50:04.861Z,304.94
2022-10-24T09:51:04.873Z,303.53
2022-10-24T09:52:04.879Z,299.29
2022-10-24T09:53:04.874Z,297.88
2022-10-24T09:54:04.880Z,314.82
2022-10-24T09:55:04.899Z,269.65
2022-10-24T09:56:04.868Z,304.94
2022-10-24T09:57:04.996Z,296.47
2022-10-24T09:58:04.879Z,297.88
2022-10-24T09:59:04.889Z,288
2022-10-24T10:00:04.909Z,286.59
2022-10-24T10:01:05.003Z,320.47
2022-10-24T10:02:05.017Z,312
2022-10-24T10:03:04.877Z,314.82
2022-10-24T10:04:08.616Z,304.94
2022-10-24T10:05:04.895Z,310.59
2022-10-24T10:06:04.881Z,310.59
2022-10-24T10:08:04.883Z,310.59
2022-10-24T10:09:04.889Z,310.59
2022-10-24T10:10:04.876Z,310.59
2022-10-24T10:11:04.911Z,310.59
2022-10-24T10:12:04.888Z,310.59
2022-10-24T10:13:04.899Z,310.59
2022-10-24T10:14:04.889Z,310.59
2022-10-24T10:15:04.898Z,310.59
2022-10-24T10:16:04.888Z,310.59
2022-10-24T10:17:04.898Z,310.59
2022-10-24T10:18:04.900Z,310.59
2022-10-24T10:19:04.892Z,310.59
2022-10-24T10:20:04.901Z,310.59
2022-10-24T10:21:04.891Z,310.59
2022-10-24T10:22:04.901Z,310.59
2022-10-24T10:23:04.899Z,310.59
2022-10-24T10:24:04.895Z,310.59
2022-10-24T10:25:04.968Z,310.59
2022-10-24T10:26:04.896Z,310.59
2022-10-24T10:27:04.930Z,310.59
2022-10-24T10:28:04.893Z,310.59
2022-10-24T10:29:04.904Z,310.59
2022-10-24T10:30:04.901Z,310.59
2022-10-24T10:31:04.906Z,310.59
2022-10-24T10:32:04.901Z,310.59
2022-10-24T10:33:04.910Z,310.59
2022-10-24T10:34:04.898Z,310.59
2022-10-24T10:35:04.912Z,310.59
2022-10-24T10:36:04.931Z,310.59
2022-10-24T10:37:04.905Z,310.59
2022-10-24T10:38:04.899Z,310.59
2022-10-24T10:39:04.898Z,310.59
2022-10-24T10:40:04.903Z,310.59
2022-10-24T10:41:04.901Z,310.59
2022-10-24T10:42:04.912Z,310.59
2022-10-24T10:43:04.925Z,310.59
2022-10-24T10:44:04.909Z,310.59
2022-10-24T10:45:04.901Z,310.59
2022-10-24T10:46:04.911Z,310.59
2022-10-24T10:47:04.902Z,310.59
2022-10-24T10:48:04.903Z,310.59
2022-10-24T10:49:04.901Z,310.59
2022-10-24T10:50:04.921Z,310.59
2022-10-24T10:51:05.902Z,310.59
2022-10-24T10:52:04.911Z,352.94
2022-10-24T10:53:04.905Z,351.53
2022-10-24T10:54:04.914Z,348.71
2022-10-24T10:55:04.908Z,348.71
2022-10-24T10:56:04.897Z,348.71
2022-10-24T10:57:04.920Z,348.71
2022-10-24T10:58:05.664Z,348.71
2022-10-24T10:59:04.928Z,348.71
2022-10-24T11:00:04.896Z,348.71
2022-10-24T11:01:05.034Z,348.71
2022-10-24T11:02:05.054Z,348.71
2022-10-24T11:03:04.907Z,296.47
2022-10-24T11:04:04.910Z,297.88
2022-10-24T11:05:04.919Z,292.24
2022-10-24T11:06:04.913Z,290.82
2022-10-24T11:07:04.919Z,316.24
2022-10-24T11:08:04.918Z,26.82
2022-10-24T11:09:04.923Z,26.82
2022-10-24T11:10:04.916Z,26.82
2022-10-24T11:11:04.916Z,26.82
2022-10-24T11:12:04.925Z,358.59
2022-10-24T11:13:04.926Z,358.59
2022-10-24T11:14:04.921Z,358.59
2022-10-24T11:15:04.945Z,60.71
2022-10-24T11:16:04.930Z,39.53
2022-10-24T11:17:04.929Z,39.53
2022-10-24T11:18:04.929Z,39.53
2022-10-24T11:19:04.935Z,39.53
2022-10-24T11:20:04.932Z,39.53
2022-10-24T11:21:04.936Z,252.71
2022-10-24T11:22:04.945Z,268.24
2022-10-24T11:23:04.942Z,217.41
2022-10-24T11:24:05.443Z,232.94
2022-10-24T11:25:04.960Z,235.76
2022-10-24T11:26:04.930Z,213.18
2022-10-24T11:27:04.941Z,213.18
2022-10-24T11:28:04.943Z,208.94
2022-10-24T11:29:04.942Z,245.65
2022-10-24T11:30:04.937Z,232.94
2022-10-24T11:31:04.971Z,255.53
2022-10-24T11:32:04.947Z,208.94
2022-10-24T11:33:04.945Z,208.94
2022-10-24T11:34:04.944Z,208.94
2022-10-24T11:35:04.940Z,208.94
2022-10-24T11:36:04.938Z,208.94
2022-10-24T11:37:04.944Z,208.94
2022-10-24T11:38:04.950Z,208.94
2022-10-24T11:39:04.940Z,208.94
2022-10-24T11:40:04.956Z,203.29
2022-10-24T11:41:04.955Z,180.71
2022-10-24T11:42:04.956Z,192
2022-10-24T11:43:04.945Z,194.82
2022-10-24T11:44:04.953Z,182.12
2022-10-24T11:45:04.943Z,179.29
2022-10-24T11:46:04.942Z,193.41
2022-10-24T11:47:06.532Z,204.71
2022-10-24T11:48:04.964Z,203.29
2022-10-24T11:49:04.954Z,201.88
2022-10-24T11:50:04.967Z,237.18
2022-10-24T11:51:04.983Z,139.76
2022-10-24T11:52:04.952Z,135.53
2022-10-24T11:53:04.964Z,135.53
2022-10-24T11:54:04.961Z,135.53
2022-10-24T11:55:04.961Z,135.53
2022-10-24T11:56:04.964Z,190.59
2022-10-24T11:57:05.026Z,172.24
2022-10-24T11:58:04.964Z,183.53
2022-10-24T11:59:04.960Z,155.29
2022-10-24T12:00:04.979Z,165.18
2022-10-24T12:01:05.023Z,193.41
2022-10-24T12:02:04.963Z,203.29
2022-10-24T12:03:04.979Z,139.76
2022-10-24T12:04:04.965Z,194.82
2022-10-24T12:05:04.962Z,192
2022-10-24T12:06:04.973Z,232.94
2022-10-24T12:07:04.971Z,216
2022-10-24T12:08:04.961Z,248.47
2022-10-24T12:09:04.971Z,227.29
2022-10-24T12:10:04.967Z,251.29
2022-10-24T12:11:04.965Z,251.29
2022-10-24T12:12:04.970Z,251.29
2022-10-24T12:13:04.968Z,251.29
2022-10-24T12:14:04.996Z,251.29
2022-10-24T12:15:04.985Z,251.29
2022-10-24T12:16:04.965Z,251.29
2022-10-24T12:17:04.974Z,251.29
2022-10-24T12:18:04.973Z,251.29
2022-10-24T12:19:05.009Z,251.29
2022-10-24T12:20:04.982Z,251.29
2022-10-24T12:21:04.974Z,251.29
2022-10-24T12:22:04.990Z,251.29
2022-10-24T12:23:04.983Z,251.29
2022-10-24T12:24:04.983Z,251.29
2022-10-24T12:25:04.985Z,251.29
2022-10-24T12:26:04.970Z,251.29
2022-10-24T12:27:04.979Z,251.29
2022-10-24T12:28:04.985Z,12.71
2022-10-24T12:29:04.990Z,2.82
2022-10-24T12:30:04.984Z,343.06
2022-10-24T12:31:04.994Z,28.24
2022-10-24T12:32:04.986Z,14.12
2022-10-24T12:33:04.985Z,14.12
2022-10-24T12:34:04.982Z,2.82
2022-10-24T12:35:29.269Z,358.59
2022-10-24T12:36:04.991Z,358.59
2022-10-24T12:37:04.996Z,357.18
2022-10-24T12:38:04.985Z,26.82
2022-10-24T12:39:05.001Z,334.59
2022-10-24T12:40:04.984Z,319.06
2022-10-24T12:41:04.990Z,295.06
2022-10-24T12:42:05.007Z,352.94
2022-10-24T12:43:04.984Z,1.41
2022-10-24T12:44:04.987Z,319.06
2022-10-24T12:45:04.989Z,271.06
2022-10-24T12:46:09.371Z,295.06
2022-10-24T12:47:04.996Z,289.41